Time;durP1;ratioP1;P1;durP2;ratioP2;P2;SDS_P1;SDS_P2;PMS_P1;PMS_P2;Temp;Humidity;BMP_temperature;BMP_pressure;BME280_temperature;BME280_humidity;BME280_pressure;Samples;Min_cycle;Max_cycle;Signal;HPM_P1;HPM_P2
2023/02/27 00:01:38;;;;;;;0.20;0.10;;;6.30;99.90;;;;;;21058459;28;20424;-65
2023/02/27 00:11:43;;;;;;;0.20;0.10;;;6.50;99.90;;;;;;21059274;28;20400;-65
2023/02/27 00:21:47;;;;;;;0.20;0.10;;;6.40;99.90;;;;;;21051346;28;20472;-67
2023/02/27 00:31:52;;;;;;;0.20;0.10;;;6.30;99.90;;;;;;21049150;28;21014;-66
2023/02/27 00:41:56;;;;;;;0.20;0.10;;;6.10;99.90;;;;;;21049398;28;20971;-65
2023/02/27 00:52:01;;;;;;;0.20;0.10;;;5.80;99.90;;;;;;21066796;28;20946;-66
2023/02/27 01:02:05;;;;;;;0.20;0.10;;;5.80;99.90;;;;;;21065455;28;20447;-66
2023/02/27 01:12:11;;;;;;;0.20;0.10;;;5.40;99.90;;;;;;21065499;28;20815;-66
2023/02/27 01:22:15;;;;;;;0.20;0.10;;;5.20;99.90;;;;;;21046405;28;20814;-66
2023/02/27 01:32:20;;;;;;;0.20;0.10;;;5.40;99.90;;;;;;21029297;28;20519;-66
2023/02/27 01:42:26;;;;;;;0.20;0.10;;;5.30;99.90;;;;;;20979642;28;20433;-66
2023/02/27 01:52:32;;;;;;;0.20;0.10;;;4.80;99.90;;;;;;20979628;28;20470;-68
2023/02/27 02:02:40;;;;;;;0.20;0.10;;;5.10;99.90;;;;;;21058489;28;20454;-67
2023/02/27 02:12:47;;;;;;;0.20;0.10;;;4.80;99.90;;;;;;21092309;28;20895;-65
2023/02/27 02:23:33;;;;;;;0.20;0.10;;;4.40;99.90;;;;;;21078819;28;20396;-66
2023/02/27 02:34:08;;;;;;;0.20;0.10;;;4.30;99.90;;;;;;21003023;28;20416;-66
2023/02/27 02:44:24;;;;;;;0.20;0.10;;;4.20;99.90;;;;;;21068437;28;20724;-65
2023/02/27 02:54:35;;;;;;;0.20;0.10;;;3.90;99.90;;;;;;21058030;28;20771;-65
2023/02/27 03:04:44;;;;;;;0.20;0.10;;;3.70;99.90;;;;;;21075365;28;20485;-66
2023/02/27 03:14:53;;;;;;;0.20;0.10;;;3.60;99.90;;;;;;21074250;28;20728;-64
2023/02/27 03:25:01;;;;;;;0.20;0.10;;;3.40;99.90;;;;;;21088144;28;20732;-65
2023/02/27 03:35:07;;;;;;;0.20;0.10;;;2.80;99.90;;;;;;21022276;28;20410;-65
2023/02/27 03:45:20;;;;;;;0.20;0.10;;;2.70;99.90;;;;;;20971162;28;20709;-65
2023/02/27 03:55:26;;;;;;;0.20;0.10;;;2.50;99.90;;;;;;21022902;28;20416;-65
2023/02/27 04:05:32;;;;;;;0.20;0.10;;;2.80;99.90;;;;;;21000895;28;20773;-65
2023/02/27 04:15:50;;;;;;;0.20;0.10;;;3.30;99.90;;;;;;20985928;28;20414;-66
2023/02/27 04:26:10;;;;;;;0.20;0.10;;;3.10;99.90;;;;;;21008713;28;20411;-65
2023/02/27 04:36:18;;;;;;;0.20;0.10;;;2.90;99.90;;;;;;21067338;28;20404;-65
2023/02/27 04:46:28;;;;;;;0.20;0.10;;;3.10;99.90;;;;;;21049109;28;20408;-65
2023/02/27 04:56:35;;;;;;;0.20;0.10;;;3.20;99.90;;;;;;21066416;28;20419;-66
2023/02/27 05:06:44;;;;;;;0.20;0.10;;;3.10;99.90;;;;;;21066018;28;20404;-66
2023/02/27 05:16:53;;;;;;;0.20;0.10;;;3.00;99.90;;;;;;21065092;28;20764;-66
2023/02/27 05:27:17;;;;;;;0.20;0.10;;;3.00;99.90;;;;;;21046050;28;20438;-66
2023/02/27 05:37:25;;;;;;;0.20;0.10;;;2.80;99.90;;;;;;21044909;28;20404;-64
2023/02/27 05:47:34;;;;;;;0.20;0.10;;;2.90;99.90;;;;;;21061748;28;20491;-65
2023/02/27 05:57:42;;;;;;;0.20;0.10;;;2.70;99.90;;;;;;21061581;28;20415;-64
2023/02/27 06:07:47;;;;;;;0.20;0.10;;;2.70;99.90;;;;;;20959998;28;20911;-65
2023/02/27 06:17:52;;;;;;;0.20;0.10;;;2.60;99.90;;;;;;20977196;28;20417;-65
2023/02/27 06:27:57;;;;;;;0.20;0.10;;;2.70;99.90;;;;;;20998894;28;20408;-65
2023/02/27 06:38:00;;;;;;;0.20;0.10;;;2.80;99.90;;;;;;21040296;28;20453;-66
2023/02/27 06:48:06;;;;;;;0.20;0.10;;;2.80;99.90;;;;;;21057327;28;20396;-65
2023/02/27 06:58:10;;;;;;;0.20;0.10;;;2.80;99.90;;;;;;21046678;28;20480;-66
2023/02/27 07:08:16;;;;;;;0.20;0.10;;;2.90;99.90;;;;;;21068428;28;20767;-66
2023/02/27 07:18:23;;;;;;;0.20;0.10;;;3.00;99.90;;;;;;21069987;28;20896;-68
2023/02/27 07:28:29;;;;;;;0.20;0.10;;;3.10;99.90;;;;;;21085445;28;20875;-66
2023/02/27 07:38:33;;;;;;;0.20;0.10;;;3.20;99.90;;;;;;21048593;28;20412;-66
2023/02/27 07:48:39;;;;;;;0.20;0.10;;;3.30;99.90;;;;;;20996855;28;20412;-65
2023/02/27 07:58:43;;;;;;;0.20;0.10;;;3.40;99.90;;;;;;21019813;28;20416;-66
2023/02/27 08:08:48;;;;;;;0.20;0.10;;;3.60;99.90;;;;;;21046936;28;20458;-67
2023/02/27 08:18:52;;;;;;;0.20;0.10;;;3.50;99.90;;;;;;21041035;28;20461;-67
2023/02/27 08:28:58;;;;;;;0.20;0.10;;;3.70;99.90;;;;;;21065516;28;20798;-66
2023/02/27 08:39:02;;;;;;;0.20;0.10;;;3.90;99.90;;;;;;21065262;28;20440;-66
2023/02/27 08:49:08;;;;;;;0.20;0.10;;;4.30;99.90;;;;;;21037157;28;20407;-67
2023/02/27 08:59:12;;;;;;;0.20;0.10;;;4.70;99.90;;;;;;21024399;28;20834;-66
2023/02/27 09:09:17;;;;;;;0.20;0.10;;;5.30;99.90;;;;;;21050933;28;20400;-66
2023/02/27 09:19:21;;;;;;;0.20;0.10;;;5.80;99.90;;;;;;21058467;28;20427;-66
2023/02/27 09:29:27;;;;;;;0.20;0.10;;;6.60;99.90;;;;;;21026619;28;20510;-66
2023/02/27 09:39:31;;;;;;;0.20;0.10;;;7.00;99.90;;;;;;21023979;28;20469;-66
2023/02/27 09:49:49;;;;;;;0.20;0.10;;;7.40;99.90;;;;;;21023397;28;21090;-68
2023/02/27 10:00:00;;;;;;;0.20;0.10;;;7.10;99.90;;;;;;21047487;28;20415;-68
2023/02/27 10:10:16;;;;;;;0.20;0.10;;;7.10;99.90;;;;;;21014109;28;20388;-67
2023/02/27 10:20:26;;;;;;;0.20;0.10;;;7.20;99.90;;;;;;21025312;28;20413;-70
2023/02/27 10:30:31;;;;;;;0.20;0.10;;;7.50;99.90;;;;;;21039270;28;20409;-69
2023/02/27 10:40:41;;;;;;;0.20;0.10;;;8.20;99.90;;;;;;21068501;28;20431;-69
2023/02/27 10:50:50;;;;;;;0.20;0.10;;;8.00;99.90;;;;;;21069210;28;20401;-67
2023/02/27 11:00:58;;;;;;;0.20;0.10;;;9.20;99.90;;;;;;21048390;28;20416;-67
2023/02/27 11:11:06;;;;;;;0.20;0.10;;;9.40;99.90;;;;;;21068392;28;20434;-66
2023/02/27 11:21:22;;;;;;;0.20;0.10;;;9.30;99.90;;;;;;21066401;28;20408;-70
2023/02/27 11:31:32;;;;;;;0.20;0.10;;;11.60;99.90;;;;;;21066670;28;20808;-66
2023/02/27 11:41:36;;;;;;;0.20;0.10;;;10.70;99.90;;;;;;21056196;28;20792;-68
2023/02/27 11:51:53;;;;;;;0.20;0.10;;;11.00;99.90;;;;;;21063528;28;20407;-66
2023/02/27 12:02:03;;;;;;;0.20;0.10;;;10.40;99.90;;;;;;21064097;28;20414;-68
2023/02/27 12:12:20;;;;;;;0.20;0.10;;;12.10;99.90;;;;;;21051230;28;20465;-66
2023/02/27 12:22:29;;;;;;;0.20;0.10;;;12.20;99.90;;;;;;21045375;28;20508;-66
2023/02/27 12:32:42;;;;;;;0.20;0.10;;;11.70;99.90;;;;;;21058293;28;20404;-68
2023/02/27 12:43:03;;;;;;;0.20;0.10;;;13.90;99.90;;;;;;21057706;28;20408;-68
2023/02/27 12:53:23;;;;;;;0.20;0.10;;;13.70;99.90;;;;;;21064733;28;20472;-67
2023/02/27 13:03:34;;;;;;;0.20;0.10;;;12.70;99.90;;;;;;21045842;28;20491;-68
2023/02/27 13:13:42;;;;;;;0.20;0.10;;;12.70;99.90;;;;;;21045157;28;20773;-67
2023/02/27 13:23:58;;;;;;;0.20;0.10;;;13.20;99.90;;;;;;21036017;28;20444;-67
2023/02/27 13:34:13;;;;;;;0.20;0.00;;;11.70;99.90;;;;;;21051481;28;20499;-68
2023/02/27 13:44:40;;;;;;;0.20;0.00;;;10.50;99.90;;;;;;21043315;28;20407;-67
2023/02/27 13:54:46;;;;;;;0.20;0.10;;;10.20;99.90;;;;;;21027385;28;20747;-68
2023/02/27 14:04:52;;;;;;;0.20;0.10;;;10.30;99.90;;;;;;21054130;28;20470;-68
2023/02/27 14:14:59;;;;;;;0.20;0.10;;;11.00;99.90;;;;;;21056702;28;20408;-67
2023/02/27 14:25:11;;;;;;;0.20;0.03;;;10.40;99.90;;;;;;21006860;28;20902;-71
2023/02/27 14:35:17;;;;;;;0.20;0.10;;;10.40;99.90;;;;;;21036139;28;20403;-67
2023/02/27 14:45:23;;;;;;;0.20;0.10;;;10.00;99.90;;;;;;21037324;28;20454;-67
2023/02/27 14:55:31;;;;;;;0.20;0.10;;;10.30;99.90;;;;;;21055794;28;20422;-68
2023/02/27 15:05:35;;;;;;;0.20;0.10;;;10.30;99.90;;;;;;21038309;28;20428;-68
2023/02/27 15:15:40;;;;;;;0.20;0.10;;;9.70;99.90;;;;;;21063682;28;20907;-68
2023/02/27 15:25:44;;;;;;;0.20;0.10;;;9.60;99.90;;;;;;21004400;28;20508;-67
2023/02/27 15:46:04;;;;;;;0.20;0.10;;;9.30;99.90;;;;;;20983798;28;20441;-66
2023/02/27 15:56:13;;;;;;;0.20;0.10;;;9.00;99.90;;;;;;21012650;28;20420;-68
2023/02/27 16:06:22;;;;;;;0.20;0.10;;;8.60;99.90;;;;;;21066057;28;20432;-68
2023/02/27 16:16:33;;;;;;;0.20;0.10;;;8.60;99.90;;;;;;21015691;28;20449;-67
2023/02/27 16:26:39;;;;;;;0.20;0.10;;;8.40;99.90;;;;;;21017590;28;20418;-67
2023/02/27 16:36:52;;;;;;;0.20;0.10;;;8.50;99.90;;;;;;21004706;28;20845;-68
2023/02/27 16:46:58;;;;;;;0.20;0.10;;;8.20;99.90;;;;;;20961769;28;20405;-68
2023/02/27 16:57:03;;;;;;;0.20;0.10;;;8.20;99.90;;;;;;20946042;28;20458;-68
2023/02/27 17:07:14;;;;;;;0.20;0.00;;;8.40;99.90;;;;;;20896752;28;20438;-67
2023/02/27 17:17:18;;;;;;;0.20;0.10;;;8.30;99.90;;;;;;20877699;28;20453;-66
2023/02/27 17:27:23;;;;;;;0.20;0.10;;;7.50;99.90;;;;;;20959804;28;20400;-68
2023/02/27 17:37:27;;;;;;;0.20;0.10;;;8.00;99.90;;;;;;21004781;28;20479;-68
2023/02/27 17:47:33;;;;;;;0.20;0.10;;;7.30;99.90;;;;;;20974481;28;20995;-69
2023/02/27 17:57:37;;;;;;;0.20;0.10;;;6.90;99.90;;;;;;20957536;28;20804;-68
2023/02/27 18:07:43;;;;;;;0.20;0.10;;;6.70;99.90;;;;;;20976288;28;20453;-68
2023/02/27 18:17:46;;;;;;;0.20;0.10;;;6.70;99.90;;;;;;20972554;28;20913;-67
2023/02/27 18:27:54;;;;;;;0.20;0.10;;;6.60;99.90;;;;;;20976220;28;20531;-69
2023/02/27 18:37:58;;;;;;;0.20;0.03;;;6.80;99.90;;;;;;20925299;28;20913;-68
2023/02/27 18:48:04;;;;;;;0.20;0.10;;;6.80;99.90;;;;;;20948649;28;20407;-67
2023/02/27 18:58:08;;;;;;;0.20;0.10;;;6.70;99.90;;;;;;20972354;28;20480;-68
2023/02/27 19:08:13;;;;;;;0.20;0.10;;;6.80;99.90;;;;;;20971640;28;20399;-67
2023/02/27 19:18:17;;;;;;;0.20;0.10;;;6.70;99.90;;;;;;21047579;28;20487;-68
2023/02/27 19:28:22;;;;;;;0.20;0.10;;;6.70;99.90;;;;;;20998415;28;20836;-69
2023/02/27 19:38:26;;;;;;;0.20;0.10;;;6.70;99.90;;;;;;20974538;28;20458;-68
2023/02/27 19:48:31;;;;;;;0.20;0.10;;;6.80;99.90;;;;;;21022860;28;20408;-67
2023/02/27 19:58:36;;;;;;;0.20;0.10;;;6.90;99.90;;;;;;20981651;28;20417;-69
2023/02/27 20:08:41;;;;;;;0.20;0.10;;;7.10;99.90;;;;;;21021828;28;20875;-68
2023/02/27 20:18:45;;;;;;;0.20;0.10;;;7.30;99.90;;;;;;21056679;28;20412;-68
2023/02/27 20:28:53;;;;;;;0.20;0.10;;;7.50;99.90;;;;;;21008865;28;20433;-68
2023/02/27 20:38:57;;;;;;;0.20;0.10;;;7.80;99.90;;;;;;20924969;28;20444;-68
2023/02/27 20:49:04;;;;;;;0.20;0.10;;;8.00;99.90;;;;;;21045564;28;20415;-68
2023/02/27 20:59:10;;;;;;;0.20;0.10;;;8.00;99.90;;;;;;20992799;28;20756;-68
2023/02/27 21:09:15;;;;;;;0.20;0.10;;;7.90;99.90;;;;;;20962798;28;20498;-69
2023/02/27 21:19:19;;;;;;;0.20;0.05;;;7.90;99.90;;;;;;21059039;28;20725;-69
2023/02/27 21:29:25;;;;;;;0.20;0.10;;;8.00;99.90;;;;;;20992739;28;20406;-68
2023/02/27 21:39:29;;;;;;;0.20;0.10;;;8.00;99.90;;;;;;20986750;28;20771;-68
2023/02/27 21:49:34;;;;;;;0.20;0.10;;;7.80;99.90;;;;;;20995348;28;20442;-67
2023/02/27 21:59:38;;;;;;;0.20;0.10;;;7.50;99.90;;;;;;21012723;28;20569;-69
2023/02/27 22:09:43;;;;;;;0.20;0.10;;;7.40;99.90;;;;;;20960671;28;20394;-68
2023/02/27 22:19:47;;;;;;;0.20;0.10;;;7.30;99.90;;;;;;21026848;28;20420;-68
2023/02/27 22:29:52;;;;;;;0.20;0.10;;;7.40;99.90;;;;;;21000515;28;20402;-68
2023/02/27 22:39:56;;;;;;;0.20;0.10;;;8.10;99.90;;;;;;20909612;28;20809;-68
2023/02/27 22:50:02;;;;;;;0.20;0.03;;;8.00;99.90;;;;;;20974276;28;20935;-66
2023/02/27 23:00:10;;;;;;;0.20;0.10;;;7.90;99.90;;;;;;21029764;28;20422;-69
2023/02/27 23:10:15;;;;;;;0.20;0.10;;;7.60;99.90;;;;;;21013538;28;20392;-69
2023/02/27 23:20:19;;;;;;;0.20;0.10;;;7.70;99.90;;;;;;21029690;28;20420;-68
2023/02/27 23:30:24;;;;;;;0.20;0.10;;;7.70;99.90;;;;;;21028073;28;20457;-68
2023/02/27 23:40:28;;;;;;;0.20;0.10;;;7.60;99.90;;;;;;20994049;28;20923;-68
2023/02/27 23:50:35;;;;;;;0.20;0.10;;;7.50;99.90;;;;;;20988639;28;20416;-68
